sensor_id;sensor_type;location;lat;lon;timestamp;temperature;humidity
14053;DHT22;7101;51.600;7.310;2024-01-27T00:00:08;2.90;99.90
14053;DHT22;7101;51.600;7.310;2024-01-27T00:02:35;2.90;99.90
14053;DHT22;7101;51.600;7.310;2024-01-27T00:05:04;2.80;99.90
14053;DHT22;7101;51.600;7.310;2024-01-27T00:07:31;2.80;99.90
14053;DHT22;7101;51.600;7.310;2024-01-27T00:09:58;2.80;99.90
14053;DHT22;7101;51.600;7.310;2024-01-27T00:12:25;2.80;99.90
14053;DHT22;7101;51.600;7.310;2024-01-27T00:14:52;2.70;99.90
14053;DHT22;7101;51.600;7.310;2024-01-27T00:17:19;2.80;99.90
14053;DHT22;7101;51.600;7.310;2024-01-27T00:19:49;2.70;99.90
14053;DHT22;7101;51.600;7.310;2024-01-27T00:22:17;2.70;99.90
14053;DHT22;7101;51.600;7.310;2024-01-27T00:24:46;2.60;99.90
14053;DHT22;7101;51.600;7.310;2024-01-27T00:27:13;2.60;99.90
14053;DHT22;7101;51.600;7.310;2024-01-27T00:29:40;2.40;99.90
14053;DHT22;7101;51.600;7.310;2024-01-27T00:32:06;2.40;99.90
14053;DHT22;7101;51.600;7.310;2024-01-27T00:34:33;2.40;99.90
14053;DHT22;7101;51.600;7.310;2024-01-27T00:37:00;2.30;99.90
14053;DHT22;7101;51.600;7.310;2024-01-27T00:39:28;2.30;99.90
14053;DHT22;7101;51.600;7.310;2024-01-27T00:41:55;2.30;99.90
14053;DHT22;7101;51.600;7.310;2024-01-27T00:44:24;2.30;99.90
14053;DHT22;7101;51.600;7.310;2024-01-27T00:46:50;2.30;99.90
14053;DHT22;7101;51.600;7.310;2024-01-27T00:49:17;2.30;99.90
14053;DHT22;7101;51.600;7.310;2024-01-27T00:51:44;2.30;99.90
14053;DHT22;7101;51.600;7.310;2024-01-27T00:54:11;2.30;99.90
14053;DHT22;7101;51.600;7.310;2024-01-27T00:56:39;2.30;99.90
14053;DHT22;7101;51.600;7.310;2024-01-27T00:59:06;2.20;99.90
14053;DHT22;7101;51.600;7.310;2024-01-27T01:01:33;2.30;99.90
14053;DHT22;7101;51.600;7.310;2024-01-27T01:04:00;2.30;99.90
14053;DHT22;7101;51.600;7.310;2024-01-27T01:06:27;2.30;99.90
14053;DHT22;7101;51.600;7.310;2024-01-27T01:08:53;2.20;99.90
14053;DHT22;7101;51.600;7.310;2024-01-27T01:11:20;2.20;99.90
14053;DHT22;7101;51.600;7.310;2024-01-27T01:13:48;2.30;99.90
14053;DHT22;7101;51.600;7.310;2024-01-27T01:16:15;2.30;99.90
14053;DHT22;7101;51.600;7.310;2024-01-27T01:18:43;2.30;99.90
14053;DHT22;7101;51.600;7.310;2024-01-27T01:21:10;2.30;99.90
14053;DHT22;7101;51.600;7.310;2024-01-27T01:23:36;2.30;99.90
14053;DHT22;7101;51.600;7.310;2024-01-27T01:26:03;2.30;99.90
14053;DHT22;7101;51.600;7.310;2024-01-27T01:28:30;2.30;99.90
14053;DHT22;7101;51.600;7.310;2024-01-27T01:30:59;2.30;99.90
14053;DHT22;7101;51.600;7.310;2024-01-27T01:33:26;2.30;99.90
14053;DHT22;7101;51.600;7.310;2024-01-27T01:35:52;2.30;99.90
14053;DHT22;7101;51.600;7.310;2024-01-27T01:38:20;2.20;99.90
14053;DHT22;7101;51.600;7.310;2024-01-27T01:40:46;2.20;99.90
14053;DHT22;7101;51.600;7.310;2024-01-27T01:43:13;2.20;99.90
14053;DHT22;7101;51.600;7.310;2024-01-27T01:45:40;2.20;99.90
14053;DHT22;7101;51.600;7.310;2024-01-27T01:48:08;2.10;99.90
14053;DHT22;7101;51.600;7.310;2024-01-27T01:50:35;2.10;99.90
14053;DHT22;7101;51.600;7.310;2024-01-27T01:53:03;2.10;99.90
14053;DHT22;7101;51.600;7.310;2024-01-27T01:55:30;2.10;99.90
14053;DHT22;7101;51.600;7.310;2024-01-27T01:57:57;2.00;99.90
14053;DHT22;7101;51.600;7.310;2024-01-27T02:00:24;2.00;99.90
14053;DHT22;7101;51.600;7.310;2024-01-27T02:02:52;2.00;99.90
14053;DHT22;7101;51.600;7.310;2024-01-27T02:05:20;1.90;99.90
14053;DHT22;7101;51.600;7.310;2024-01-27T02:07:47;1.80;99.90
14053;DHT22;7101;51.600;7.310;2024-01-27T02:10:15;1.80;99.90
14053;DHT22;7101;51.600;7.310;2024-01-27T02:12:42;1.80;99.90
14053;DHT22;7101;51.600;7.310;2024-01-27T02:15:10;1.80;99.90
14053;DHT22;7101;51.600;7.310;2024-01-27T02:17:38;1.80;99.90
14053;DHT22;7101;51.600;7.310;2024-01-27T02:20:06;1.70;99.90
14053;DHT22;7101;51.600;7.310;2024-01-27T02:22:36;1.60;99.90
14053;DHT22;7101;51.600;7.310;2024-01-27T02:25:05;1.60;99.90
14053;DHT22;7101;51.600;7.310;2024-01-27T02:27:32;1.60;99.90
14053;DHT22;7101;51.600;7.310;2024-01-27T02:29:59;1.60;99.90
14053;DHT22;7101;51.600;7.310;2024-01-27T02:32:27;1.60;99.90
14053;DHT22;7101;51.600;7.310;2024-01-27T02:34:53;1.50;99.90
14053;DHT22;7101;51.600;7.310;2024-01-27T02:37:21;1.50;99.90
14053;DHT22;7101;51.600;7.310;2024-01-27T02:39:48;1.50;99.90
14053;DHT22;7101;51.600;7.310;2024-01-27T02:42:16;1.50;99.90
14053;DHT22;7101;51.600;7.310;2024-01-27T02:44:43;1.50;99.90
14053;DHT22;7101;51.600;7.310;2024-01-27T02:47:10;1.50;99.90
14053;DHT22;7101;51.600;7.310;2024-01-27T02:49:36;1.50;99.90
14053;DHT22;7101;51.600;7.310;2024-01-27T02:52:04;1.50;99.90
14053;DHT22;7101;51.600;7.310;2024-01-27T02:54:31;1.50;99.90
14053;DHT22;7101;51.600;7.310;2024-01-27T02:56:57;1.50;99.90
14053;DHT22;7101;51.600;7.310;2024-01-27T02:59:26;1.40;99.90
14053;DHT22;7101;51.600;7.310;2024-01-27T03:01:52;1.40;99.90
14053;DHT22;7101;51.600;7.310;2024-01-27T03:04:19;1.30;99.90
14053;DHT22;7101;51.600;7.310;2024-01-27T03:06:46;1.30;99.90
14053;DHT22;7101;51.600;7.310;2024-01-27T03:09:13;1.30;99.90
14053;DHT22;7101;51.600;7.310;2024-01-27T03:11:39;1.20;99.90
14053;DHT22;7101;51.600;7.310;2024-01-27T03:14:08;1.20;99.90
14053;DHT22;7101;51.600;7.310;2024-01-27T03:16:37;1.30;99.90
14053;DHT22;7101;51.600;7.310;2024-01-27T03:19:04;1.20;99.90
14053;DHT22;7101;51.600;7.310;2024-01-27T03:21:31;1.20;99.90
14053;DHT22;7101;51.600;7.310;2024-01-27T03:23:58;1.30;99.90
14053;DHT22;7101;51.600;7.310;2024-01-27T03:26:25;1.30;99.90
14053;DHT22;7101;51.600;7.310;2024-01-27T03:28:51;1.20;99.90
14053;DHT22;7101;51.600;7.310;2024-01-27T03:31:19;1.20;99.90
14053;DHT22;7101;51.600;7.310;2024-01-27T03:33:47;1.30;99.90
14053;DHT22;7101;51.600;7.310;2024-01-27T03:36:15;1.30;99.90
14053;DHT22;7101;51.600;7.310;2024-01-27T03:38:42;1.40;99.90
14053;DHT22;7101;51.600;7.310;2024-01-27T03:41:12;1.30;99.90
14053;DHT22;7101;51.600;7.310;2024-01-27T03:43:39;1.30;99.90
14053;DHT22;7101;51.600;7.310;2024-01-27T03:46:06;1.20;99.90
14053;DHT22;7101;51.600;7.310;2024-01-27T03:48:33;1.20;99.90
14053;DHT22;7101;51.600;7.310;2024-01-27T03:51:02;1.20;99.90
14053;DHT22;7101;51.600;7.310;2024-01-27T03:53:28;1.20;99.90
14053;DHT22;7101;51.600;7.310;2024-01-27T03:55:55;1.20;99.90
14053;DHT22;7101;51.600;7.310;2024-01-27T03:58:24;1.10;99.90
14053;DHT22;7101;51.600;7.310;2024-01-27T04:00:51;1.10;99.90
14053;DHT22;7101;51.600;7.310;2024-01-27T04:03:18;1.10;99.90
14053;DHT22;7101;51.600;7.310;2024-01-27T04:05:45;1.20;99.90
14053;DHT22;7101;51.600;7.310;2024-01-27T04:08:13;1.20;99.90
14053;DHT22;7101;51.600;7.310;2024-01-27T04:10:40;1.10;99.90
14053;DHT22;7101;51.600;7.310;2024-01-27T04:13:08;1.20;99.90
14053;DHT22;7101;51.600;7.310;2024-01-27T04:15:34;1.20;99.90
14053;DHT22;7101;51.600;7.310;2024-01-27T04:18:04;1.20;99.90
14053;DHT22;7101;51.600;7.310;2024-01-27T04:20:31;1.20;99.90
14053;DHT22;7101;51.600;7.310;2024-01-27T04:22:57;1.20;99.90
14053;DHT22;7101;51.600;7.310;2024-01-27T04:25:25;1.10;99.90
14053;DHT22;7101;51.600;7.310;2024-01-27T04:27:52;1.10;99.90
14053;DHT22;7101;51.600;7.310;2024-01-27T04:30:19;1.10;99.90
14053;DHT22;7101;51.600;7.310;2024-01-27T04:32:46;1.10;99.90
14053;DHT22;7101;51.600;7.310;2024-01-27T04:35:14;1.20;99.90
14053;DHT22;7101;51.600;7.310;2024-01-27T04:37:41;1.20;99.90
14053;DHT22;7101;51.600;7.310;2024-01-27T04:40:10;1.20;99.90
14053;DHT22;7101;51.600;7.310;2024-01-27T04:42:38;1.20;99.90
14053;DHT22;7101;51.600;7.310;2024-01-27T04:45:06;1.20;99.90
14053;DHT22;7101;51.600;7.310;2024-01-27T04:47:33;1.20;99.90
14053;DHT22;7101;51.600;7.310;2024-01-27T04:49:59;1.20;99.90
14053;DHT22;7101;51.600;7.310;2024-01-27T04:52:26;1.30;99.90
14053;DHT22;7101;51.600;7.310;2024-01-27T04:54:53;1.30;99.90
14053;DHT22;7101;51.600;7.310;2024-01-27T04:57:19;1.20;99.90
14053;DHT22;7101;51.600;7.310;2024-01-27T04:59:48;1.30;99.90
14053;DHT22;7101;51.600;7.310;2024-01-27T05:02:14;1.30;99.90
14053;DHT22;7101;51.600;7.310;2024-01-27T05:04:41;1.30;99.90
14053;DHT22;7101;51.600;7.310;2024-01-27T05:07:08;1.30;99.90
14053;DHT22;7101;51.600;7.310;2024-01-27T05:09:34;1.40;99.90
14053;DHT22;7101;51.600;7.310;2024-01-27T05:12:01;1.30;99.90
14053;DHT22;7101;51.600;7.310;2024-01-27T05:14:28;1.30;99.90
14053;DHT22;7101;51.600;7.310;2024-01-27T05:16:56;1.30;99.90
14053;DHT22;7101;51.600;7.310;2024-01-27T05:19:23;1.30;99.90
14053;DHT22;7101;51.600;7.310;2024-01-27T05:21:50;1.30;99.90
14053;DHT22;7101;51.600;7.310;2024-01-27T05:24:16;1.30;99.90
14053;DHT22;7101;51.600;7.310;2024-01-27T05:26:43;1.30;99.90
14053;DHT22;7101;51.600;7.310;2024-01-27T05:29:12;1.20;99.90
14053;DHT22;7101;51.600;7.310;2024-01-27T05:31:39;1.20;99.90
14053;DHT22;7101;51.600;7.310;2024-01-27T05:34:10;1.30;99.90
14053;DHT22;7101;51.600;7.310;2024-01-27T05:36:36;1.20;99.90
14053;DHT22;7101;51.600;7.310;2024-01-27T05:39:03;1.20;99.90
14053;DHT22;7101;51.600;7.310;2024-01-27T05:41:31;1.20;99.90
14053;DHT22;7101;51.600;7.310;2024-01-27T05:43:58;1.20;99.90
14053;DHT22;7101;51.600;7.310;2024-01-27T05:46:25;1.20;99.90
14053;DHT22;7101;51.600;7.310;2024-01-27T05:48:52;1.20;99.90
14053;DHT22;7101;51.600;7.310;2024-01-27T05:51:21;1.10;99.90
14053;DHT22;7101;51.600;7.310;2024-01-27T05:53:48;1.10;99.90
14053;DHT22;7101;51.600;7.310;2024-01-27T05:56:15;1.10;99.90
14053;DHT22;7101;51.600;7.310;2024-01-27T05:58:42;1.10;99.90
14053;DHT22;7101;51.600;7.310;2024-01-27T06:01:09;1.20;99.90
14053;DHT22;7101;51.600;7.310;2024-01-27T06:03:36;1.10;99.90
14053;DHT22;7101;51.600;7.310;2024-01-27T06:06:03;1.10;99.90
14053;DHT22;7101;51.600;7.310;2024-01-27T06:08:31;1.10;99.90
14053;DHT22;7101;51.600;7.310;2024-01-27T06:10:57;1.00;99.90
14053;DHT22;7101;51.600;7.310;2024-01-27T06:13:25;1.10;99.90
14053;DHT22;7101;51.600;7.310;2024-01-27T06:15:52;1.00;99.90
14053;DHT22;7101;51.600;7.310;2024-01-27T06:18:18;1.00;99.90
14053;DHT22;7101;51.600;7.310;2024-01-27T06:20:46;1.10;99.90
14053;DHT22;7101;51.600;7.310;2024-01-27T06:23:13;1.00;99.90
14053;DHT22;7101;51.600;7.310;2024-01-27T06:25:41;1.00;99.90
14053;DHT22;7101;51.600;7.310;2024-01-27T06:28:07;1.00;99.90
14053;DHT22;7101;51.600;7.310;2024-01-27T06:30:36;1.00;99.90
14053;DHT22;7101;51.600;7.310;2024-01-27T06:33:03;1.00;99.90
14053;DHT22;7101;51.600;7.310;2024-01-27T06:35:30;1.00;99.90
14053;DHT22;7101;51.600;7.310;2024-01-27T06:37:57;0.90;99.90
14053;DHT22;7101;51.600;7.310;2024-01-27T06:40:24;0.90;99.90
14053;DHT22;7101;51.600;7.310;2024-01-27T06:42:52;0.90;99.90
14053;DHT22;7101;51.600;7.310;2024-01-27T06:45:19;0.90;99.90
14053;DHT22;7101;51.600;7.310;2024-01-27T06:47:46;0.90;99.90
14053;DHT22;7101;51.600;7.310;2024-01-27T06:50:12;0.90;99.90
14053;DHT22;7101;51.600;7.310;2024-01-27T06:52:40;1.00;99.90
14053;DHT22;7101;51.600;7.310;2024-01-27T06:55:07;0.90;99.90
14053;DHT22;7101;51.600;7.310;2024-01-27T06:57:36;0.90;99.90
14053;DHT22;7101;51.600;7.310;2024-01-27T07:00:05;0.90;99.90
14053;DHT22;7101;51.600;7.310;2024-01-27T07:02:32;0.80;99.90
14053;DHT22;7101;51.600;7.310;2024-01-27T07:05:00;0.80;99.90
14053;DHT22;7101;51.600;7.310;2024-01-27T07:07:27;0.80;99.90
14053;DHT22;7101;51.600;7.310;2024-01-27T07:09:55;0.90;99.90
14053;DHT22;7101;51.600;7.310;2024-01-27T07:12:22;0.90;99.90
14053;DHT22;7101;51.600;7.310;2024-01-27T07:14:49;0.90;99.90
14053;DHT22;7101;51.600;7.310;2024-01-27T07:17:18;0.90;99.90
14053;DHT22;7101;51.600;7.310;2024-01-27T07:19:44;0.90;99.90
14053;DHT22;7101;51.600;7.310;2024-01-27T07:22:11;0.80;99.90
14053;DHT22;7101;51.600;7.310;2024-01-27T07:24:39;0.80;99.90
14053;DHT22;7101;51.600;7.310;2024-01-27T07:27:06;0.70;99.90
14053;DHT22;7101;51.600;7.310;2024-01-27T07:29:33;0.60;99.90
14053;DHT22;7101;51.600;7.310;2024-01-27T07:32:00;0.60;99.90
14053;DHT22;7101;51.600;7.310;2024-01-27T07:34:28;0.60;99.90
14053;DHT22;7101;51.600;7.310;2024-01-27T07:36:55;0.50;99.90
14053;DHT22;7101;51.600;7.310;2024-01-27T07:39:21;0.60;99.90
14053;DHT22;7101;51.600;7.310;2024-01-27T07:41:48;0.70;99.90
14053;DHT22;7101;51.600;7.310;2024-01-27T07:44:18;0.70;99.90
14053;DHT22;7101;51.600;7.310;2024-01-27T07:46:45;0.80;99.90
14053;DHT22;7101;51.600;7.310;2024-01-27T07:49:12;0.90;99.90
14053;DHT22;7101;51.600;7.310;2024-01-27T07:51:44;0.90;99.90
14053;DHT22;7101;51.600;7.310;2024-01-27T07:54:11;1.00;99.90
14053;DHT22;7101;51.600;7.310;2024-01-27T07:56:39;1.00;99.90
14053;DHT22;7101;51.600;7.310;2024-01-27T07:59:06;1.00;99.90
14053;DHT22;7101;51.600;7.310;2024-01-27T08:01:39;1.00;99.90
14053;DHT22;7101;51.600;7.310;2024-01-27T08:04:06;1.10;99.90
14053;DHT22;7101;51.600;7.310;2024-01-27T08:06:32;1.10;99.90
14053;DHT22;7101;51.600;7.310;2024-01-27T08:09:00;1.20;99.90
14053;DHT22;7101;51.600;7.310;2024-01-27T08:11:27;1.30;99.90
14053;DHT22;7101;51.600;7.310;2024-01-27T08:13:55;1.40;99.90
14053;DHT22;7101;51.600;7.310;2024-01-27T08:16:22;1.50;99.90
14053;DHT22;7101;51.600;7.310;2024-01-27T08:18:49;1.60;99.90
14053;DHT22;7101;51.600;7.310;2024-01-27T08:21:16;1.70;99.90
14053;DHT22;7101;51.600;7.310;2024-01-27T08:23:43;1.80;99.90
14053;DHT22;7101;51.600;7.310;2024-01-27T08:26:11;1.90;99.90
14053;DHT22;7101;51.600;7.310;2024-01-27T08:28:38;1.90;99.90
14053;DHT22;7101;51.600;7.310;2024-01-27T08:31:05;2.00;99.90
14053;DHT22;7101;51.600;7.310;2024-01-27T08:33:32;2.10;99.90
14053;DHT22;7101;51.600;7.310;2024-01-27T08:35:59;2.20;99.90
14053;DHT22;7101;51.600;7.310;2024-01-27T08:38:27;2.20;99.90
14053;DHT22;7101;51.600;7.310;2024-01-27T08:40:56;2.30;99.90
14053;DHT22;7101;51.600;7.310;2024-01-27T08:43:24;2.30;99.90
14053;DHT22;7101;51.600;7.310;2024-01-27T08:45:51;2.40;99.90
14053;DHT22;7101;51.600;7.310;2024-01-27T08:48:20;2.50;1.00
14053;DHT22;7101;51.600;7.310;2024-01-27T08:50:47;2.50;1.00
14053;DHT22;7101;51.600;7.310;2024-01-27T08:53:14;2.60;1.00
14053;DHT22;7101;51.600;7.310;2024-01-27T08:55:40;2.70;1.00
14053;DHT22;7101;51.600;7.310;2024-01-27T08:58:07;2.80;99.90
14053;DHT22;7101;51.600;7.310;2024-01-27T09:00:35;2.80;99.90
14053;DHT22;7101;51.600;7.310;2024-01-27T09:03:03;2.90;99.90
14053;DHT22;7101;51.600;7.310;2024-01-27T09:05:31;2.90;99.90
14053;DHT22;7101;51.600;7.310;2024-01-27T09:07:57;3.00;99.90
14053;DHT22;7101;51.600;7.310;2024-01-27T09:10:24;3.10;99.90
14053;DHT22;7101;51.600;7.310;2024-01-27T09:12:51;3.20;99.90
14053;DHT22;7101;51.600;7.310;2024-01-27T09:15:19;3.30;99.90
14053;DHT22;7101;51.600;7.310;2024-01-27T09:17:47;3.30;99.90
14053;DHT22;7101;51.600;7.310;2024-01-27T09:20:14;3.40;1.00
14053;DHT22;7101;51.600;7.310;2024-01-27T09:22:41;3.50;1.00
14053;DHT22;7101;51.600;7.310;2024-01-27T09:25:10;3.60;1.00
14053;DHT22;7101;51.600;7.310;2024-01-27T09:27:37;3.60;1.00
14053;DHT22;7101;51.600;7.310;2024-01-27T09:30:04;3.70;1.00
14053;DHT22;7101;51.600;7.310;2024-01-27T09:32:32;3.70;99.90
14053;DHT22;7101;51.600;7.310;2024-01-27T09:35:00;3.80;99.90
14053;DHT22;7101;51.600;7.310;2024-01-27T09:37:27;3.90;99.90
14053;DHT22;7101;51.600;7.310;2024-01-27T09:39:54;4.10;99.90
14053;DHT22;7101;51.600;7.310;2024-01-27T09:42:21;4.10;99.90
14053;DHT22;7101;51.600;7.310;2024-01-27T09:44:49;4.10;99.90
14053;DHT22;7101;51.600;7.310;2024-01-27T09:47:16;4.20;99.90
14053;DHT22;7101;51.600;7.310;2024-01-27T09:49:43;4.30;99.90
14053;DHT22;7101;51.600;7.310;2024-01-27T09:52:11;4.30;99.90
14053;DHT22;7101;51.600;7.310;2024-01-27T09:54:40;4.40;99.90
14053;DHT22;7101;51.600;7.310;2024-01-27T09:57:08;4.50;99.90
14053;DHT22;7101;51.600;7.310;2024-01-27T09:59:36;4.60;99.90
14053;DHT22;7101;51.600;7.310;2024-01-27T10:02:04;4.60;99.90
14053;DHT22;7101;51.600;7.310;2024-01-27T10:04:33;4.70;99.90
14053;DHT22;7101;51.600;7.310;2024-01-27T10:07:00;4.70;99.90
14053;DHT22;7101;51.600;7.310;2024-01-27T10:09:28;4.70;99.90
14053;DHT22;7101;51.600;7.310;2024-01-27T10:11:55;4.80;99.90
14053;DHT22;7101;51.600;7.310;2024-01-27T10:14:23;4.90;99.90
14053;DHT22;7101;51.600;7.310;2024-01-27T10:16:49;5.00;99.90
14053;DHT22;7101;51.600;7.310;2024-01-27T10:19:17;5.10;99.90
14053;DHT22;7101;51.600;7.310;2024-01-27T10:21:44;5.20;99.90
14053;DHT22;7101;51.600;7.310;2024-01-27T10:24:11;5.20;99.90
14053;DHT22;7101;51.600;7.310;2024-01-27T10:26:39;5.30;99.90
14053;DHT22;7101;51.600;7.310;2024-01-27T10:29:06;5.30;99.90
14053;DHT22;7101;51.600;7.310;2024-01-27T10:31:34;5.40;99.90
14053;DHT22;7101;51.600;7.310;2024-01-27T10:34:01;5.40;99.90
14053;DHT22;7101;51.600;7.310;2024-01-27T10:36:39;5.40;99.90
14053;DHT22;7101;51.600;7.310;2024-01-27T10:39:17;5.40;99.90
14053;DHT22;7101;51.600;7.310;2024-01-27T10:41:48;5.40;99.90
14053;DHT22;7101;51.600;7.310;2024-01-27T10:44:16;5.50;99.90
14053;DHT22;7101;51.600;7.310;2024-01-27T10:46:44;5.60;99.90
14053;DHT22;7101;51.600;7.310;2024-01-27T10:49:12;5.60;99.90
14053;DHT22;7101;51.600;7.310;2024-01-27T10:51:44;5.70;99.90
14053;DHT22;7101;51.600;7.310;2024-01-27T10:54:14;5.80;99.90
14053;DHT22;7101;51.600;7.310;2024-01-27T10:56:46;5.70;99.90
14053;DHT22;7101;51.600;7.310;2024-01-27T10:59:15;5.80;1.00
14053;DHT22;7101;51.600;7.310;2024-01-27T11:01:46;5.90;1.00
14053;DHT22;7101;51.600;7.310;2024-01-27T11:04:14;6.00;1.00
14053;DHT22;7101;51.600;7.310;2024-01-27T11:06:42;6.00;1.00
14053;DHT22;7101;51.600;7.310;2024-01-27T11:09:10;6.10;99.90
14053;DHT22;7101;51.600;7.310;2024-01-27T11:11:39;6.10;1.00
14053;DHT22;7101;51.600;7.310;2024-01-27T11:14:06;6.00;99.90
14053;DHT22;7101;51.600;7.310;2024-01-27T11:16:36;6.10;99.90
14053;DHT22;7101;51.600;7.310;2024-01-27T11:19:08;6.00;99.90
14053;DHT22;7101;51.600;7.310;2024-01-27T11:21:36;6.10;99.90
14053;DHT22;7101;51.600;7.310;2024-01-27T11:24:14;6.10;99.90
14053;DHT22;7101;51.600;7.310;2024-01-27T11:26:41;6.20;1.00
14053;DHT22;7101;51.600;7.310;2024-01-27T11:29:08;6.30;9.80
14053;DHT22;7101;51.600;7.310;2024-01-27T11:31:45;6.30;99.90
14053;DHT22;7101;51.600;7.310;2024-01-27T11:34:12;6.40;99.90
14053;DHT22;7101;51.600;7.310;2024-01-27T11:36:43;6.50;99.90
14053;DHT22;7101;51.600;7.310;2024-01-27T11:39:23;6.50;1.00
14053;DHT22;7101;51.600;7.310;2024-01-27T11:41:51;6.50;1.00
14053;DHT22;7101;51.600;7.310;2024-01-27T11:44:17;6.50;1.00
14053;DHT22;7101;51.600;7.310;2024-01-27T11:46:47;6.50;99.90
14053;DHT22;7101;51.600;7.310;2024-01-27T11:49:15;6.60;1.00
14053;DHT22;7101;51.600;7.310;2024-01-27T11:51:41;6.60;1.00
14053;DHT22;7101;51.600;7.310;2024-01-27T11:54:09;6.70;1.00
14053;DHT22;7101;51.600;7.310;2024-01-27T11:56:36;6.60;1.00
14053;DHT22;7101;51.600;7.310;2024-01-27T11:59:03;6.70;1.00
14053;DHT22;7101;51.600;7.310;2024-01-27T12:01:30;6.60;1.00
14053;DHT22;7101;51.600;7.310;2024-01-27T12:03:59;6.70;1.00
14053;DHT22;7101;51.600;7.310;2024-01-27T12:06:28;6.80;1.00
14053;DHT22;7101;51.600;7.310;2024-01-27T12:08:56;6.80;1.00
14053;DHT22;7101;51.600;7.310;2024-01-27T12:11:23;6.80;99.90
14053;DHT22;7101;51.600;7.310;2024-01-27T12:13:50;6.70;1.00
14053;DHT22;7101;51.600;7.310;2024-01-27T12:16:18;6.80;1.00
14053;DHT22;7101;51.600;7.310;2024-01-27T12:18:45;6.80;1.00
14053;DHT22;7101;51.600;7.310;2024-01-27T12:21:13;6.90;1.00
14053;DHT22;7101;51.600;7.310;2024-01-27T12:23:50;6.90;99.90
14053;DHT22;7101;51.600;7.310;2024-01-27T12:26:17;6.80;1.00
14053;DHT22;7101;51.600;7.310;2024-01-27T12:28:45;6.90;99.90
14053;DHT22;7101;51.600;7.310;2024-01-27T12:31:14;7.00;1.00
14053;DHT22;7101;51.600;7.310;2024-01-27T12:33:48;7.00;99.90
14053;DHT22;7101;51.600;7.310;2024-01-27T12:36:17;7.00;99.90
14053;DHT22;7101;51.600;7.310;2024-01-27T12:38:47;6.90;1.00
14053;DHT22;7101;51.600;7.310;2024-01-27T12:41:13;6.90;1.00
14053;DHT22;7101;51.600;7.310;2024-01-27T12:43:40;6.90;99.90
14053;DHT22;7101;51.600;7.310;2024-01-27T12:46:07;6.90;99.90
14053;DHT22;7101;51.600;7.310;2024-01-27T12:48:33;7.00;1.00
14053;DHT22;7101;51.600;7.310;2024-01-27T12:51:00;7.00;99.90
14053;DHT22;7101;51.600;7.310;2024-01-27T12:53:29;7.00;99.90
14053;DHT22;7101;51.600;7.310;2024-01-27T12:55:57;7.00;1.00
14053;DHT22;7101;51.600;7.310;2024-01-27T12:58:27;7.00;1.00
14053;DHT22;7101;51.600;7.310;2024-01-27T13:00:54;7.10;39.80
14053;DHT22;7101;51.600;7.310;2024-01-27T13:03:20;7.10;1.00
14053;DHT22;7101;51.600;7.310;2024-01-27T13:05:47;7.10;1.00
14053;DHT22;7101;51.600;7.310;2024-01-27T13:08:15;7.10;99.90
14053;DHT22;7101;51.600;7.310;2024-01-27T13:10:43;7.10;99.90
14053;DHT22;7101;51.600;7.310;2024-01-27T13:13:10;7.10;1.00
14053;DHT22;7101;51.600;7.310;2024-01-27T13:15:37;7.10;99.90
14053;DHT22;7101;51.600;7.310;2024-01-27T13:18:03;7.10;1.00
14053;DHT22;7101;51.600;7.310;2024-01-27T13:20:31;7.10;1.00
14053;DHT22;7101;51.600;7.310;2024-01-27T13:22:58;7.10;1.00
14053;DHT22;7101;51.600;7.310;2024-01-27T13:25:25;7.10;1.00
14053;DHT22;7101;51.600;7.310;2024-01-27T13:27:53;7.10;1.00
14053;DHT22;7101;51.600;7.310;2024-01-27T13:30:21;7.10;1.00
14053;DHT22;7101;51.600;7.310;2024-01-27T13:32:48;7.10;1.00
14053;DHT22;7101;51.600;7.310;2024-01-27T13:35:15;7.20;1.00
14053;DHT22;7101;51.600;7.310;2024-01-27T13:37:41;7.20;1.00
14053;DHT22;7101;51.600;7.310;2024-01-27T13:40:10;7.20;99.90
14053;DHT22;7101;51.600;7.310;2024-01-27T13:42:36;7.20;1.00
14053;DHT22;7101;51.600;7.310;2024-01-27T13:45:06;7.20;1.00
14053;DHT22;7101;51.600;7.310;2024-01-27T13:47:34;7.20;1.00
14053;DHT22;7101;51.600;7.310;2024-01-27T13:50:01;7.20;1.00
14053;DHT22;7101;51.600;7.310;2024-01-27T13:52:28;7.20;1.00
14053;DHT22;7101;51.600;7.310;2024-01-27T13:54:55;7.20;99.90
14053;DHT22;7101;51.600;7.310;2024-01-27T13:57:22;7.20;99.90
14053;DHT22;7101;51.600;7.310;2024-01-27T13:59:48;7.20;99.90
14053;DHT22;7101;51.600;7.310;2024-01-27T14:02:17;7.10;1.00
14053;DHT22;7101;51.600;7.310;2024-01-27T14:04:43;7.10;1.00
14053;DHT22;7101;51.600;7.310;2024-01-27T14:07:10;7.10;1.00
14053;DHT22;7101;51.600;7.310;2024-01-27T14:09:37;7.10;1.00
14053;DHT22;7101;51.600;7.310;2024-01-27T14:12:04;7.20;1.00
14053;DHT22;7101;51.600;7.310;2024-01-27T14:14:31;7.20;1.00
14053;DHT22;7101;51.600;7.310;2024-01-27T14:16:58;7.20;99.90
14053;DHT22;7101;51.600;7.310;2024-01-27T14:19:26;7.10;99.90
14053;DHT22;7101;51.600;7.310;2024-01-27T14:21:53;7.10;1.00
14053;DHT22;7101;51.600;7.310;2024-01-27T14:24:21;7.10;99.90
14053;DHT22;7101;51.600;7.310;2024-01-27T14:26:48;7.10;1.00
14053;DHT22;7101;51.600;7.310;2024-01-27T14:29:16;7.00;99.90
14053;DHT22;7101;51.600;7.310;2024-01-27T14:31:43;6.90;1.00
14053;DHT22;7101;51.600;7.310;2024-01-27T14:34:11;6.90;1.00
14053;DHT22;7101;51.600;7.310;2024-01-27T14:36:40;6.80;1.00
14053;DHT22;7101;51.600;7.310;2024-01-27T14:39:07;6.80;1.00
14053;DHT22;7101;51.600;7.310;2024-01-27T14:41:36;6.80;1.00
14053;DHT22;7101;51.600;7.310;2024-01-27T14:44:03;6.70;1.00
14053;DHT22;7101;51.600;7.310;2024-01-27T14:46:31;6.60;1.00
14053;DHT22;7101;51.600;7.310;2024-01-27T14:48:58;6.60;99.90
14053;DHT22;7101;51.600;7.310;2024-01-27T14:51:25;6.50;1.00
14053;DHT22;7101;51.600;7.310;2024-01-27T14:53:53;6.50;99.90
14053;DHT22;7101;51.600;7.310;2024-01-27T14:56:19;6.50;1.00
14053;DHT22;7101;51.600;7.310;2024-01-27T14:58:46;6.40;99.90
14053;DHT22;7101;51.600;7.310;2024-01-27T15:01:17;6.40;1.00
14053;DHT22;7101;51.600;7.310;2024-01-27T15:03:43;6.40;1.00
14053;DHT22;7101;51.600;7.310;2024-01-27T15:06:10;6.40;1.00
14053;DHT22;7101;51.600;7.310;2024-01-27T15:08:37;6.40;1.00
14053;DHT22;7101;51.600;7.310;2024-01-27T15:11:05;6.40;1.00
14053;DHT22;7101;51.600;7.310;2024-01-27T15:13:32;6.40;1.00
14053;DHT22;7101;51.600;7.310;2024-01-27T15:15:58;6.40;1.00
14053;DHT22;7101;51.600;7.310;2024-01-27T15:18:25;6.40;1.00
14053;DHT22;7101;51.600;7.310;2024-01-27T15:20:52;6.30;99.90
14053;DHT22;7101;51.600;7.310;2024-01-27T15:23:19;6.30;1.00
14053;DHT22;7101;51.600;7.310;2024-01-27T15:25:46;6.30;1.00
14053;DHT22;7101;51.600;7.310;2024-01-27T15:28:15;6.30;1.00
14053;DHT22;7101;51.600;7.310;2024-01-27T15:30:43;6.20;1.00
14053;DHT22;7101;51.600;7.310;2024-01-27T15:33:12;6.10;99.90
14053;DHT22;7101;51.600;7.310;2024-01-27T15:35:39;6.10;99.90
14053;DHT22;7101;51.600;7.310;2024-01-27T15:38:07;6.00;99.90
14053;DHT22;7101;51.600;7.310;2024-01-27T15:40:34;5.90;1.00
14053;DHT22;7101;51.600;7.310;2024-01-27T15:43:01;5.80;1.00
14053;DHT22;7101;51.600;7.310;2024-01-27T15:45:29;5.70;1.00
14053;DHT22;7101;51.600;7.310;2024-01-27T15:47:56;5.70;99.90
14053;DHT22;7101;51.600;7.310;2024-01-27T15:50:24;5.60;1.00
14053;DHT22;7101;51.600;7.310;2024-01-27T15:52:53;5.50;1.00
14053;DHT22;7101;51.600;7.310;2024-01-27T15:55:21;5.40;1.00
14053;DHT22;7101;51.600;7.310;2024-01-27T15:57:47;5.30;99.90
14053;DHT22;7101;51.600;7.310;2024-01-27T16:00:16;5.20;99.90
14053;DHT22;7101;51.600;7.310;2024-01-27T16:02:44;5.20;99.90
14053;DHT22;7101;51.600;7.310;2024-01-27T16:05:11;5.10;1.00